createdAt,value
2023-03-21T00:02:18.552Z,47.72
2023-03-21T00:04:52.381Z,47.67
2023-03-21T00:07:22.252Z,48.05
2023-03-21T00:09:55.186Z,47.89
2023-03-21T00:12:26.090Z,47.93
2023-03-21T00:14:56.182Z,48.01
2023-03-21T00:17:33.597Z,47.93
2023-03-21T00:20:02.846Z,48.06
2023-03-21T00:22:30.754Z,48.05
2023-03-21T00:25:00.470Z,48.14
2023-03-21T00:27:45.224Z,48.25
2023-03-21T00:30:15.122Z,47.86
2023-03-21T00:32:53.298Z,48.20
2023-03-21T00:38:17.805Z,48.41
2023-03-21T00:40:49.176Z,48.37
2023-03-21T00:43:23.350Z,48.50
2023-03-21T00:45:53.260Z,48.58
2023-03-21T00:48:20.069Z,48.83
2023-03-21T00:50:47.227Z,48.93
2023-03-21T00:53:17.271Z,48.84
2023-03-21T00:55:44.109Z,48.89
2023-03-21T00:58:11.213Z,49.13
2023-03-21T01:00:40.885Z,49.03
2023-03-21T01:03:23.149Z,48.97
2023-03-21T01:06:07.288Z,49.29
2023-03-21T01:08:51.820Z,49.07
2023-03-21T01:11:27.894Z,49.18
2023-03-21T01:14:10.915Z,49.26
2023-03-21T01:16:43.852Z,49.18
2023-03-21T01:19:24.013Z,49.25
2023-03-21T01:21:52.005Z,49.29
2023-03-21T01:24:19.887Z,49.38
2023-03-21T01:26:51.377Z,49.57
2023-03-21T01:29:18.138Z,49.41
2023-03-21T01:31:48.049Z,49.45
2023-03-21T01:34:19.230Z,49.43
2023-03-21T01:36:50.624Z,49.43
2023-03-21T01:39:18.708Z,49.28
2023-03-21T01:41:46.033Z,49.46
2023-03-21T01:44:15.623Z,49.58
2023-03-21T01:47:07.720Z,49.49
2023-03-21T01:49:46.068Z,49.68
2023-03-21T01:52:29.752Z,49.74
2023-03-21T01:55:02.562Z,49.71
2023-03-21T01:57:43.533Z,49.82
2023-03-21T02:00:17.246Z,50.02
2023-03-21T02:02:52.452Z,49.67
2023-03-21T02:05:23.593Z,50.07
2023-03-21T02:07:52.766Z,49.85
2023-03-21T02:10:21.656Z,49.88
2023-03-21T02:12:50.482Z,49.87
2023-03-21T02:15:19.302Z,50.05
2023-03-21T02:17:59.289Z,50.14
2023-03-21T02:21:03.325Z,49.82
2023-03-21T02:23:57.883Z,50.09
2023-03-21T02:29:46.866Z,49.84
2023-03-21T02:32:35.013Z,50.09
2023-03-21T02:35:18.980Z,49.91
2023-03-21T02:38:07.109Z,50.02
2023-03-21T02:40:53.881Z,50.03
2023-03-21T02:43:39.225Z,50.30
2023-03-21T02:46:11.167Z,50.14
2023-03-21T02:49:03.573Z,50.38
2023-03-21T02:51:30.667Z,50.31
2023-03-21T02:54:27.884Z,50.26
2023-03-21T02:56:56.529Z,50.45
2023-03-21T02:59:25.589Z,50.95
2023-03-21T03:01:54.409Z,50.79
2023-03-21T03:04:27.913Z,50.97
2023-03-21T03:07:19.048Z,51.09
2023-03-21T03:10:23.895Z,50.95
2023-03-21T03:13:21.619Z,51.10
2023-03-21T03:16:01.211Z,51.32
2023-03-21T03:18:55.747Z,51.27
2023-03-21T03:21:28.274Z,51.41
2023-03-21T03:24:22.897Z,51.25
2023-03-21T03:26:52.538Z,51.49
2023-03-21T03:29:23.899Z,51.69
2023-03-21T03:32:00.626Z,51.81
2023-03-21T03:34:39.620Z,51.76
2023-03-21T03:37:08.325Z,51.83
2023-03-21T03:39:46.298Z,51.70
2023-03-21T03:42:28.177Z,51.83
2023-03-21T03:44:55.978Z,51.81
2023-03-21T03:47:47.743Z,51.65
2023-03-21T03:50:39.171Z,51.87
2023-03-21T03:53:27.878Z,51.71
2023-03-21T03:55:57.206Z,51.82
2023-03-21T03:58:33.392Z,51.79
2023-03-21T04:01:08.630Z,51.87
2023-03-21T04:03:48.117Z,51.94
2023-03-21T04:06:16.847Z,51.88
2023-03-21T04:08:43.785Z,51.82
2023-03-21T04:11:14.318Z,51.71
2023-03-21T04:13:41.259Z,51.95
2023-03-21T04:16:11.074Z,51.87
2023-03-21T04:18:40.225Z,51.81
2023-03-21T04:21:13.075Z,51.89
2023-03-21T04:23:45.636Z,51.83
2023-03-21T04:26:13.317Z,51.79
2023-03-21T04:28:42.847Z,51.76
2023-03-21T04:31:24.983Z,51.98
2023-03-21T04:33:56.094Z,51.70
2023-03-21T04:36:27.338Z,51.67
2023-03-21T04:38:58.289Z,51.83
2023-03-21T04:41:28.524Z,51.74
2023-03-21T04:43:56.651Z,51.68
2023-03-21T04:46:23.747Z,51.60
2023-03-21T04:48:50.413Z,51.55
2023-03-21T04:51:17.078Z,51.64
2023-03-21T04:53:46.002Z,51.42
2023-03-21T04:56:12.758Z,51.59
2023-03-21T04:58:40.690Z,51.62
2023-03-21T05:01:09.989Z,51.60
2023-03-21T05:03:40.176Z,51.62
2023-03-21T05:06:11.509Z,51.82
2023-03-21T05:08:41.541Z,51.62
2023-03-21T05:11:11.151Z,51.64
2023-03-21T05:13:39.942Z,51.87
2023-03-21T05:16:09.828Z,51.75
2023-03-21T05:18:38.778Z,51.72
2023-03-21T05:21:11.400Z,51.76
2023-03-21T05:23:39.237Z,52.05
2023-03-21T05:26:07.359Z,51.93
2023-03-21T05:28:36.903Z,51.90
2023-03-21T05:31:08.832Z,52.04
2023-03-21T05:33:35.470Z,51.92
2023-03-21T05:36:04.237Z,51.99
2023-03-21T05:38:33.166Z,51.77
2023-03-21T05:41:01.933Z,51.84
2023-03-21T05:43:28.712Z,51.71
2023-03-21T05:45:55.408Z,51.80
2023-03-21T05:48:24.262Z,51.88
2023-03-21T05:50:50.969Z,51.90
2023-03-21T05:53:17.585Z,51.91
2023-03-21T05:55:44.348Z,51.81
2023-03-21T05:58:11.186Z,51.82
2023-03-21T06:00:40.210Z,51.89
2023-03-21T06:03:07.068Z,51.99
2023-03-21T06:05:33.854Z,51.86
2023-03-21T06:08:00.604Z,51.92
2023-03-21T06:10:29.522Z,52.04
2023-03-21T06:12:58.658Z,51.85
2023-03-21T06:15:26.702Z,51.98
2023-03-21T06:17:56.033Z,52.12
2023-03-21T06:20:24.808Z,51.95
2023-03-21T06:22:57.795Z,52.14
2023-03-21T06:25:25.995Z,51.98
2023-03-21T06:27:55.195Z,51.83
2023-03-21T06:30:24.083Z,52.01
2023-03-21T06:32:50.780Z,52.09
2023-03-21T06:35:25.309Z,51.98
2023-03-21T06:37:54.797Z,52.00
2023-03-21T06:40:21.692Z,52.24
2023-03-21T06:42:53.097Z,52.04
2023-03-21T06:45:19.961Z,51.96
2023-03-21T06:47:54.722Z,52.04
2023-03-21T06:50:21.444Z,52.13
2023-03-21T06:52:51.141Z,42.09
2023-03-21T06:55:21.073Z,40.73
2023-03-21T06:57:50.069Z,40.25
2023-03-21T07:00:18.290Z,39.82
2023-03-21T07:02:51.150Z,39.65
2023-03-21T07:05:18.288Z,38.99
2023-03-21T07:07:53.267Z,38.85
2023-03-21T07:10:20.475Z,38.93
2023-03-21T07:12:49.203Z,39.55
2023-03-21T07:15:17.827Z,39.12
2023-03-21T07:17:44.569Z,38.02
2023-03-21T07:20:14.307Z,38.29
2023-03-21T07:22:41.748Z,38.86
2023-03-21T07:25:14.452Z,38.25
2023-03-21T07:27:43.126Z,37.82
2023-03-21T07:30:11.867Z,37.99
2023-03-21T07:32:39.684Z,38.40
2023-03-21T07:35:10.116Z,40.41
2023-03-21T07:37:38.104Z,41.78
2023-03-21T07:40:10.819Z,44.21
2023-03-21T07:42:43.725Z,44.92
2023-03-21T07:45:31.194Z,44.90
2023-03-21T07:47:59.980Z,44.54
2023-03-21T07:50:30.667Z,44.72
2023-03-21T07:52:59.991Z,44.79
2023-03-21T07:55:27.132Z,45.48
2023-03-21T07:57:54.142Z,44.82
2023-03-21T08:00:30.475Z,43.11
2023-03-21T08:03:01.446Z,42.80
2023-03-21T08:11:53.152Z,43.85
2023-03-21T08:14:22.411Z,44.31
2023-03-21T08:16:50.436Z,44.25
2023-03-21T08:19:21.432Z,44.24
2023-03-21T08:21:49.596Z,44.64
2023-03-21T08:24:16.501Z,44.70
2023-03-21T08:26:46.258Z,44.82
2023-03-21T08:29:13.956Z,44.93
2023-03-21T08:31:45.534Z,45.00
2023-03-21T08:34:15.637Z,45.30
2023-03-21T08:36:43.167Z,45.32
2023-03-21T08:39:25.692Z,45.49
2023-03-21T08:41:52.420Z,45.36
2023-03-21T08:44:20.419Z,45.53
2023-03-21T08:49:35.388Z,45.55
2023-03-21T08:52:06.311Z,45.84
2023-03-21T08:54:33.073Z,45.83
2023-03-21T08:57:02.409Z,45.65
2023-03-21T08:59:36.649Z,45.63
2023-03-21T09:04:49.497Z,45.90
2023-03-21T09:07:22.645Z,46.08
2023-03-21T09:10:21.845Z,46.16
2023-03-21T09:12:54.971Z,46.09
2023-03-21T09:15:24.796Z,46.28
2023-03-21T09:17:54.908Z,46.34
2023-03-21T09:20:28.691Z,46.56
2023-03-21T09:22:55.351Z,46.64
2023-03-21T09:25:22.147Z,46.81
2023-03-21T09:27:52.551Z,46.43
2023-03-21T09:30:25.611Z,46.55
2023-03-21T09:32:58.236Z,46.39
2023-03-21T09:35:37.204Z,45.96
2023-03-21T09:38:04.170Z,46.22
2023-03-21T09:40:41.035Z,46.26
2023-03-21T09:43:23.184Z,46.17
2023-03-21T09:46:05.531Z,43.63
2023-03-21T09:49:11.422Z,41.90
2023-03-21T09:51:48.932Z,41.58
2023-03-21T09:54:49.348Z,40.69
2023-03-21T09:57:32.290Z,40.78
2023-03-21T10:00:21.227Z,40.60
2023-03-21T10:03:08.868Z,40.24
2023-03-21T10:05:47.146Z,40.02
2023-03-21T10:11:36.927Z,40.04
2023-03-21T10:14:18.747Z,39.51
2023-03-21T10:16:47.829Z,40.64
2023-03-21T10:19:17.226Z,40.79
2023-03-21T10:22:03.656Z,40.80
2023-03-21T10:24:32.140Z,41.03
2023-03-21T10:27:04.901Z,40.02
2023-03-21T10:29:44.848Z,39.24
2023-03-21T10:32:14.376Z,40.26
2023-03-21T10:34:45.690Z,39.97
2023-03-21T10:37:12.965Z,41.05
2023-03-21T10:39:55.867Z,41.30
2023-03-21T10:42:32.862Z,40.74
2023-03-21T10:44:59.523Z,39.67
2023-03-21T10:47:31.324Z,39.76
2023-03-21T10:50:10.234Z,40.13
2023-03-21T10:52:38.707Z,40.63
2023-03-21T10:55:34.460Z,40.31
2023-03-21T10:58:08.651Z,39.82
2023-03-21T11:00:37.705Z,39.27
2023-03-21T11:03:06.902Z,39.71
2023-03-21T11:05:38.796Z,40.18
2023-03-21T11:08:12.824Z,40.45
2023-03-21T11:10:59.038Z,40.85
2023-03-21T11:13:27.421Z,40.11
2023-03-21T11:15:58.971Z,39.14
2023-03-21T11:18:29.009Z,39.48
2023-03-21T11:21:06.863Z,39.04
2023-03-21T11:23:35.385Z,39.41
2023-03-21T11:26:06.974Z,39.26
2023-03-21T11:28:36.767Z,39.42
2023-03-21T11:31:07.080Z,38.99
2023-03-21T11:33:40.332Z,38.45
2023-03-21T11:36:27.551Z,39.08
2023-03-21T11:39:01.953Z,39.65
2023-03-21T11:41:37.992Z,39.85
2023-03-21T11:44:06.762Z,39.65
2023-03-21T11:46:42.399Z,39.35
2023-03-21T11:49:12.196Z,39.95
2023-03-21T11:51:58.740Z,40.41
2023-03-21T11:54:31.066Z,40.22
2023-03-21T11:57:41.165Z,40.48
2023-03-21T12:00:18.301Z,39.87
2023-03-21T12:02:59.066Z,39.37
2023-03-21T12:05:27.828Z,38.85
2023-03-21T12:08:12.804Z,39.74
2023-03-21T12:11:19.534Z,39.43
2023-03-21T12:13:46.095Z,39.51
2023-03-21T12:16:41.323Z,38.24
2023-03-21T12:19:29.745Z,38.66
2023-03-21T12:22:23.497Z,39.65
2023-03-21T12:24:56.908Z,39.87
2023-03-21T12:27:26.680Z,40.29
2023-03-21T12:30:16.334Z,39.44
2023-03-21T12:33:04.213Z,38.12
2023-03-21T12:36:06.666Z,38.41
2023-03-21T12:39:06.917Z,37.88
2023-03-21T12:41:54.345Z,38.35
2023-03-21T12:44:24.200Z,38.36
2023-03-21T12:47:27.470Z,37.47
2023-03-21T12:50:05.058Z,37.44
2023-03-21T12:52:43.575Z,38.33
2023-03-21T12:55:19.433Z,38.36
2023-03-21T12:57:57.029Z,38.00
2023-03-21T13:00:28.803Z,36.41
2023-03-21T13:03:04.830Z,36.45
2023-03-21T13:05:50.749Z,37.48
2023-03-21T13:08:31.701Z,37.82
2023-03-21T13:11:01.352Z,38.22
2023-03-21T13:13:55.823Z,38.18
2023-03-21T13:16:39.219Z,38.15
2023-03-21T13:19:18.440Z,38.15
2023-03-21T13:22:03.566Z,37.64
2023-03-21T13:24:40.987Z,37.58
2023-03-21T13:27:14.869Z,38.06
2023-03-21T13:29:49.764Z,38.60
2023-03-21T13:32:29.391Z,38.52
2023-03-21T13:34:57.427Z,38.57
2023-03-21T13:37:25.266Z,38.00
2023-03-21T13:39:52.056Z,37.43
2023-03-21T13:42:27.869Z,38.18
2023-03-21T13:44:59.548Z,37.73
2023-03-21T13:47:44.702Z,38.09
2023-03-21T13:50:14.071Z,38.46
2023-03-21T13:52:41.118Z,38.38
2023-03-21T13:55:16.716Z,38.22
2023-03-21T13:57:44.789Z,38.41
2023-03-21T14:00:18.140Z,38.30
2023-03-21T14:02:58.424Z,38.67
2023-03-21T14:05:28.445Z,38.59
2023-03-21T14:08:15.359Z,37.90
2023-03-21T14:10:47.639Z,38.36
2023-03-21T14:13:22.069Z,38.68
2023-03-21T14:16:00.633Z,38.81
2023-03-21T14:18:51.637Z,38.67
2023-03-21T14:21:24.838Z,38.61
2023-03-21T14:24:08.104Z,38.85
2023-03-21T14:26:45.715Z,39.02
2023-03-21T14:29:29.495Z,38.91
2023-03-21T14:32:00.050Z,39.06
2023-03-21T14:34:31.836Z,38.77
2023-03-21T14:37:01.196Z,38.74
2023-03-21T14:39:36.365Z,38.70
2023-03-21T14:42:04.622Z,38.76
2023-03-21T14:44:53.990Z,39.26
2023-03-21T14:47:33.264Z,38.87
2023-03-21T14:50:01.428Z,39.12
2023-03-21T14:52:32.824Z,39.14
2023-03-21T14:55:00.262Z,38.83
2023-03-21T14:57:29.163Z,39.39
2023-03-21T14:59:58.097Z,39.42
2023-03-21T15:02:46.390Z,39.54
2023-03-21T15:05:22.573Z,39.29
2023-03-21T15:07:55.362Z,39.79
2023-03-21T15:10:22.188Z,39.38
2023-03-21T15:12:56.583Z,39.60
2023-03-21T15:15:26.713Z,39.62
2023-03-21T15:18:00.805Z,39.47
2023-03-21T15:20:31.282Z,39.91
2023-03-21T15:23:03.606Z,39.53
2023-03-21T15:25:32.208Z,39.63
2023-03-21T15:28:00.987Z,39.76
2023-03-21T15:30:29.108Z,40.07
2023-03-21T15:33:01.528Z,40.02
2023-03-21T15:35:33.573Z,39.81
2023-03-21T15:38:04.603Z,40.17
2023-03-21T15:40:33.141Z,40.08
2023-03-21T15:43:22.393Z,40.27
2023-03-21T15:45:56.857Z,40.47
2023-03-21T15:48:30.497Z,40.74
2023-03-21T15:51:03.900Z,40.66
2023-03-21T15:53:34.780Z,40.43
2023-03-21T15:56:05.949Z,40.60
2023-03-21T15:58:39.010Z,40.87
2023-03-21T16:01:10.018Z,40.68
2023-03-21T16:03:37.698Z,40.87
2023-03-21T16:06:34.799Z,41.12
2023-03-21T16:09:04.499Z,41.47
2023-03-21T16:11:47.021Z,41.82
2023-03-21T16:14:16.081Z,42.25
2023-03-21T16:16:45.012Z,42.36
2023-03-21T16:19:16.391Z,42.87
2023-03-21T16:21:46.045Z,43.02
2023-03-21T16:24:16.257Z,43.08
2023-03-21T16:26:48.041Z,43.29
2023-03-21T16:29:19.388Z,43.27
2023-03-21T16:31:47.700Z,43.25
2023-03-21T16:34:17.218Z,43.49
2023-03-21T16:36:44.126Z,43.57
2023-03-21T16:39:24.788Z,43.77
2023-03-21T16:41:53.611Z,43.85
2023-03-21T16:44:23.016Z,44.02
2023-03-21T16:46:49.727Z,43.78
2023-03-21T16:49:26.260Z,43.89
2023-03-21T16:51:57.869Z,43.97
2023-03-21T16:54:27.299Z,44.17
2023-03-21T16:56:59.488Z,43.99
2023-03-21T16:59:28.347Z,43.87
2023-03-21T17:01:55.149Z,44.12
2023-03-21T17:04:22.559Z,44.45
2023-03-21T17:06:53.192Z,44.52
2023-03-21T17:09:26.114Z,44.55
2023-03-21T17:11:52.848Z,44.70
2023-03-21T17:14:23.173Z,44.74
2023-03-21T17:16:49.939Z,44.87
2023-03-21T17:19:28.016Z,45.19
2023-03-21T17:21:59.363Z,45.41
2023-03-21T17:24:28.547Z,44.97
2023-03-21T17:27:01.053Z,45.18
2023-03-21T17:29:27.817Z,45.17
2023-03-21T17:31:54.485Z,45.13
2023-03-21T17:34:21.345Z,45.34
2023-03-21T17:36:49.198Z,45.30
2023-03-21T17:39:26.700Z,45.06
2023-03-21T17:41:53.675Z,45.17
2023-03-21T17:44:20.615Z,45.43
2023-03-21T17:46:49.590Z,46.11
2023-03-21T17:49:19.928Z,46.87
2023-03-21T17:51:48.886Z,47.43
2023-03-21T17:54:20.411Z,47.96
2023-03-21T17:56:51.748Z,48.06
2023-03-21T17:59:18.633Z,48.13
2023-03-21T18:01:45.457Z,48.36
2023-03-21T18:04:14.398Z,48.39
2023-03-21T18:06:41.198Z,48.51
2023-03-21T18:09:11.894Z,48.66
2023-03-21T18:11:41.598Z,48.59
2023-03-21T18:14:16.548Z,48.53
2023-03-21T18:16:50.786Z,48.39
2023-03-21T18:19:22.203Z,48.57
2023-03-21T18:21:48.914Z,48.43
2023-03-21T18:24:18.229Z,48.37
2023-03-21T18:26:47.049Z,48.68
2023-03-21T18:30:17.436Z,48.65
2023-03-21T18:32:07.955Z,48.89
2023-03-21T18:34:41.767Z,48.88
2023-03-21T18:37:13.598Z,48.71
2023-03-21T18:39:45.447Z,48.58
2023-03-21T18:42:19.994Z,48.89
2023-03-21T18:44:49.535Z,49.40
2023-03-21T18:47:16.841Z,50.29
2023-03-21T18:52:32.296Z,51.13
2023-03-21T18:54:59.551Z,51.22
2023-03-21T18:57:41.711Z,51.43
2023-03-21T19:00:13.293Z,51.63
2023-03-21T19:02:47.856Z,51.76
2023-03-21T19:05:16.708Z,51.62
2023-03-21T19:07:44.447Z,51.80
2023-03-21T19:10:18.970Z,52.21
2023-03-21T19:12:50.946Z,51.99
2023-03-21T19:15:21.440Z,52.14
2023-03-21T19:20:45.917Z,51.84
2023-03-21T19:23:12.743Z,52.29
2023-03-21T19:25:42.865Z,52.30
2023-03-21T19:28:12.274Z,52.29
2023-03-21T19:30:39.465Z,52.30
2023-03-21T19:33:08.632Z,52.64
2023-03-21T19:35:37.514Z,52.48
2023-03-21T19:38:06.867Z,52.39
2023-03-21T19:40:33.736Z,52.35
2023-03-21T19:43:21.601Z,52.24
2023-03-21T19:45:49.260Z,52.36
2023-03-21T19:48:16.552Z,52.43
2023-03-21T19:51:20.091Z,52.35
2023-03-21T19:53:35.694Z,52.39
2023-03-21T19:56:04.893Z,52.23
2023-03-21T19:58:39.783Z,52.42
2023-03-21T20:01:08.643Z,52.38
2023-03-21T20:03:40.605Z,52.17
2023-03-21T20:06:08.660Z,52.32
2023-03-21T20:09:05.398Z,52.24
2023-03-21T20:11:27.291Z,52.32
2023-03-21T20:13:56.466Z,52.31
2023-03-21T20:16:34.981Z,52.50
2023-03-21T20:19:06.072Z,52.55
2023-03-21T20:21:43.417Z,52.45
2023-03-21T20:24:16.869Z,52.59
2023-03-21T20:26:47.341Z,52.59
2023-03-21T20:30:07.551Z,52.78
2023-03-21T20:32:03.052Z,52.77
2023-03-21T20:34:30.598Z,52.91
2023-03-21T20:37:06.174Z,53.00
2023-03-21T20:39:35.433Z,52.95
2023-03-21T20:42:05.409Z,52.93
2023-03-21T20:44:55.890Z,53.09
2023-03-21T20:47:19.490Z,52.95
2023-03-21T20:49:49.477Z,53.16
2023-03-21T20:55:09.219Z,53.05
2023-03-21T20:57:38.823Z,53.06
2023-03-21T21:00:13.715Z,52.98
2023-03-21T21:02:41.777Z,53.19
2023-03-21T21:05:33.088Z,52.99
2023-03-21T21:08:08.079Z,53.09
2023-03-21T21:10:56.296Z,52.99
2023-03-21T21:13:25.573Z,53.03
2023-03-21T21:15:55.533Z,52.98
2023-03-21T21:18:26.916Z,53.16
2023-03-21T21:21:05.167Z,53.09
2023-03-21T21:23:35.260Z,53.35
2023-03-21T21:26:04.888Z,53.42
2023-03-21T21:28:31.906Z,53.33
2023-03-21T21:31:07.325Z,53.64
2023-03-21T21:33:34.451Z,53.43
2023-03-21T21:36:01.602Z,53.31
2023-03-21T21:38:30.700Z,53.46
2023-03-21T21:40:59.301Z,53.67
2023-03-21T21:43:31.973Z,53.74
2023-03-21T21:45:58.725Z,53.75
2023-03-21T21:48:30.891Z,53.75
2023-03-21T21:50:59.085Z,53.88
2023-03-21T21:53:28.364Z,54.03
2023-03-21T21:55:57.384Z,53.75
2023-03-21T21:58:25.958Z,54.05
2023-03-21T22:00:54.790Z,53.90
2023-03-21T22:03:24.260Z,54.01
2023-03-21T22:05:54.778Z,54.08
2023-03-21T22:08:23.145Z,53.96
2023-03-21T22:10:51.980Z,53.98
2023-03-21T22:13:21.260Z,54.09
2023-03-21T22:15:52.636Z,53.89
2023-03-21T22:18:19.355Z,54.00
2023-03-21T22:20:48.182Z,54.15
2023-03-21T22:23:14.786Z,54.13
2023-03-21T22:25:43.388Z,54.27
2023-03-21T22:28:12.330Z,55.09
2023-03-21T22:30:39.233Z,55.32
2023-03-21T22:33:09.603Z,55.38
2023-03-21T22:35:38.991Z,55.30
2023-03-21T22:38:05.826Z,55.39
2023-03-21T22:40:34.823Z,46.09
2023-03-21T22:43:03.625Z,46.54
2023-03-21T22:45:32.947Z,46.99
2023-03-21T22:48:01.786Z,47.59
2023-03-21T22:50:30.818Z,47.88
2023-03-21T22:55:54.160Z,50.28
2023-03-21T22:58:24.906Z,50.85
2023-03-21T23:00:57.897Z,51.49
2023-03-21T23:03:28.698Z,51.99
2023-03-21T23:06:04.030Z,52.21
2023-03-21T23:08:31.028Z,52.60
2023-03-21T23:11:11.245Z,52.89
2023-03-21T23:13:42.555Z,53.20
2023-03-21T23:16:11.613Z,53.06
2023-03-21T23:18:42.928Z,53.20
2023-03-21T23:21:16.675Z,53.45
2023-03-21T23:23:43.947Z,53.62
2023-03-21T23:26:15.606Z,53.74
2023-03-21T23:28:49.719Z,54.10
2023-03-21T23:31:23.770Z,54.18
2023-03-21T23:33:51.880Z,53.97
2023-03-21T23:36:19.267Z,54.14
2023-03-21T23:38:51.405Z,54.23
2023-03-21T23:41:19.810Z,54.35
2023-03-21T23:43:49.551Z,54.35
2023-03-21T23:46:19.378Z,54.55
2023-03-21T23:48:48.367Z,54.48
2023-03-21T23:51:16.440Z,54.64
2023-03-21T23:53:44.421Z,54.64
2023-03-21T23:56:17.869Z,54.49
2023-03-21T23:58:44.571Z,54.49
